createdAt,value
2023-04-02T00:01:28.383Z,99282.22
2023-04-02T00:04:14.883Z,99282.06
2023-04-02T00:06:46.231Z,99280.22
2023-04-02T00:09:38.571Z,99287.28
2023-04-02T00:12:19.963Z,99285.28
2023-04-02T00:14:51.794Z,99293.19
2023-04-02T00:17:25.002Z,99290.88
2023-04-02T00:19:58.826Z,99291.22
2023-04-02T00:22:31.905Z,99303.69
2023-04-02T00:25:04.470Z,99293.25
2023-04-02T00:27:33.479Z,99294.00
2023-04-02T00:30:04.828Z,99322.63
2023-04-02T00:32:36.764Z,99313.19
2023-04-02T00:35:12.860Z,99326.69
2023-04-02T00:37:42.377Z,99327.00
2023-04-02T00:40:18.728Z,99325.97
2023-04-02T00:42:48.133Z,99328.91
2023-04-02T00:45:23.953Z,99318.53
2023-04-02T00:47:54.387Z,99307.59
2023-04-02T00:50:29.257Z,99332.78
2023-04-02T00:53:00.207Z,99335.56
2023-04-02T00:55:37.225Z,99315.75
2023-04-02T00:58:06.792Z,99345.19
2023-04-02T01:00:38.447Z,99350.31
2023-04-02T01:03:35.217Z,99351.97
2023-04-02T01:06:11.120Z,99352.00
2023-04-02T01:08:52.720Z,99354.63
2023-04-02T01:11:42.174Z,99356.50
2023-04-02T01:14:19.915Z,99360.94
2023-04-02T01:16:57.471Z,99369.00
2023-04-02T01:20:01.144Z,99372.69
2023-04-02T01:22:38.385Z,99369.22
2023-04-02T01:25:08.781Z,99374.31
2023-04-02T01:27:44.832Z,99375.06
2023-04-02T01:30:16.293Z,99380.34
2023-04-02T01:32:45.728Z,99384.56
2023-04-02T01:35:14.595Z,99394.03
2023-04-02T01:37:50.341Z,99399.81
2023-04-02T01:40:33.676Z,99398.00
2023-04-02T01:43:12.721Z,99403.41
2023-04-02T01:45:42.952Z,99413.44
2023-04-02T01:48:18.366Z,99413.44
2023-04-02T01:50:50.125Z,99392.84
2023-04-02T01:53:21.077Z,99393.78
2023-04-02T01:55:52.729Z,99426.13
2023-04-02T01:58:26.233Z,99406.41
2023-04-02T02:01:01.610Z,99402.41
2023-04-02T02:03:31.120Z,99427.56
2023-04-02T02:06:00.884Z,99433.81
2023-04-02T02:08:38.885Z,99431.84
2023-04-02T02:11:09.737Z,99441.31
2023-04-02T02:13:39.107Z,99436.91
2023-04-02T02:16:18.510Z,99439.44
2023-04-02T02:18:50.135Z,99450.53
2023-04-02T02:21:29.999Z,99449.56
2023-04-02T02:23:59.296Z,99449.94
2023-04-02T02:26:31.472Z,99458.53
2023-04-02T02:29:02.514Z,99456.03
2023-04-02T02:31:35.715Z,99464.19
2023-04-02T02:34:12.496Z,99465.69
2023-04-02T02:36:50.984Z,99482.16
2023-04-02T02:39:24.092Z,99471.03
2023-04-02T02:41:56.769Z,99477.41
2023-04-02T02:44:28.138Z,99485.72
2023-04-02T02:47:02.957Z,99484.34
2023-04-02T02:49:35.835Z,99486.00
2023-04-02T02:52:14.894Z,99499.13
2023-04-02T02:54:46.420Z,99478.53
2023-04-02T02:57:19.341Z,99500.25
2023-04-02T02:59:54.810Z,99506.03
2023-04-02T03:02:25.523Z,99508.00
2023-04-02T03:04:56.780Z,99520.88
2023-04-02T03:07:30.464Z,99528.59
2023-04-02T03:10:06.239Z,99523.19
2023-04-02T03:12:41.805Z,99530.81
2023-04-02T03:15:21.604Z,99538.78
2023-04-02T03:17:57.124Z,99544.34
2023-04-02T03:20:33.307Z,99543.94
2023-04-02T03:23:07.681Z,99548.16
2023-04-02T03:25:43.090Z,99559.13
2023-04-02T03:28:17.209Z,99552.91
2023-04-02T03:30:51.280Z,99561.91
2023-04-02T03:33:25.012Z,99560.09
2023-04-02T03:35:59.110Z,99576.94
2023-04-02T03:38:31.816Z,99581.28
2023-04-02T03:41:06.431Z,99571.13
2023-04-02T03:43:41.071Z,99584.38
2023-04-02T03:46:20.886Z,99590.06
2023-04-02T03:48:54.608Z,99595.75
2023-04-02T03:51:29.136Z,99602.13
2023-04-02T03:53:58.144Z,99599.44
2023-04-02T03:56:31.965Z,99610.13
2023-04-02T03:59:12.608Z,99616.97
2023-04-02T04:01:46.785Z,99624.53
2023-04-02T04:04:20.954Z,99627.72
2023-04-02T04:06:52.998Z,99622.94
2023-04-02T04:09:27.495Z,99637.13
2023-04-02T04:12:03.715Z,99631.19
2023-04-02T04:14:34.754Z,99645.59
2023-04-02T04:17:14.155Z,99649.63
2023-04-02T04:19:47.738Z,99655.06
2023-04-02T04:22:19.317Z,99660.00
2023-04-02T04:24:50.075Z,99652.59
2023-04-02T04:27:33.756Z,99670.19
2023-04-02T04:30:07.547Z,99675.88
2023-04-02T04:32:39.424Z,99684.97
2023-04-02T04:35:19.922Z,99701.63
2023-04-02T04:37:53.838Z,99697.88
2023-04-02T04:40:25.713Z,99693.19
2023-04-02T04:42:58.889Z,99689.22
2023-04-02T04:45:42.902Z,99702.75
2023-04-02T04:48:17.848Z,99710.38
2023-04-02T04:50:52.358Z,99695.56
2023-04-02T04:53:24.117Z,99711.97
2023-04-02T04:55:55.579Z,99724.00
2023-04-02T04:58:29.331Z,99728.53
2023-04-02T05:01:05.310Z,99731.41
2023-04-02T05:03:40.534Z,99737.13
2023-04-02T05:06:17.415Z,99742.97
2023-04-02T05:08:50.744Z,99743.22
2023-04-02T05:11:26.672Z,99746.53
2023-04-02T05:14:00.215Z,99757.84
2023-04-02T05:16:36.157Z,99760.47
2023-04-02T05:19:09.315Z,99766.19
2023-04-02T05:21:44.888Z,99770.78
2023-04-02T05:24:52.877Z,99772.69
2023-04-02T05:27:28.847Z,99780.53
2023-04-02T05:30:02.236Z,99767.94
2023-04-02T05:32:33.478Z,99785.09
2023-04-02T05:35:05.511Z,99783.19
2023-04-02T05:37:35.722Z,99784.13
2023-04-02T05:40:15.922Z,99787.66
2023-04-02T05:42:49.836Z,99787.06
2023-04-02T05:45:26.598Z,99791.22
2023-04-02T05:48:02.043Z,99800.91
2023-04-02T05:50:37.522Z,99804.38
2023-04-02T05:53:12.698Z,99810.34
2023-04-02T05:55:53.491Z,99815.56
2023-04-02T05:58:35.983Z,99814.06
2023-04-02T06:01:17.790Z,99823.94
2023-04-02T06:03:53.329Z,99825.75
2023-04-02T06:06:44.203Z,99824.41
2023-04-02T06:09:20.388Z,99824.06
2023-04-02T06:11:53.441Z,99827.41
2023-04-02T06:14:22.066Z,99838.59
2023-04-02T06:16:50.689Z,99851.06
2023-04-02T06:19:24.359Z,99845.38
2023-04-02T06:21:59.604Z,99838.47
2023-04-02T06:24:32.364Z,99852.44
2023-04-02T06:27:06.710Z,99858.25
2023-04-02T06:29:40.365Z,99869.34
2023-04-02T06:32:10.946Z,99873.16
2023-04-02T06:34:42.444Z,99871.00
2023-04-02T06:37:21.276Z,99866.34
2023-04-02T06:39:51.457Z,99885.88
2023-04-02T06:42:23.231Z,99880.88
2023-04-02T06:44:52.335Z,99894.59
2023-04-02T06:47:31.390Z,99898.78
2023-04-02T06:50:06.324Z,99904.16
2023-04-02T06:52:40.315Z,99908.06
2023-04-02T06:55:31.887Z,99906.97
2023-04-02T06:58:03.388Z,99920.41
2023-04-02T07:00:37.714Z,99917.28
2023-04-02T07:03:11.085Z,99925.59
2023-04-02T07:05:41.819Z,99920.13
2023-04-02T07:08:11.896Z,99936.47
2023-04-02T07:10:42.060Z,99938.03
2023-04-02T07:13:17.013Z,99933.75
2023-04-02T07:15:47.252Z,99952.31
2023-04-02T07:18:25.683Z,99945.06
2023-04-02T07:20:54.935Z,99963.22
2023-04-02T07:23:24.172Z,99958.31
2023-04-02T07:25:56.005Z,99968.19
2023-04-02T07:28:25.020Z,99962.19
2023-04-02T07:30:54.265Z,99957.31
2023-04-02T07:33:25.593Z,99980.69
2023-04-02T07:35:59.130Z,99964.91
2023-04-02T07:38:27.736Z,99984.28
2023-04-02T07:41:00.253Z,99974.06
2023-04-02T07:43:28.920Z,99979.44
2023-04-02T07:45:57.406Z,99986.47
2023-04-02T07:48:25.918Z,99994.69
2023-04-02T07:50:54.599Z,99988.06
2023-04-02T07:53:31.059Z,100000.50
2023-04-02T07:56:03.112Z,100005.28
2023-04-02T07:58:32.548Z,100007.75
2023-04-02T08:01:04.694Z,100001.69
2023-04-02T08:03:34.838Z,100017.78
2023-04-02T08:06:03.521Z,100019.81
2023-04-02T08:08:32.106Z,100027.44
2023-04-02T08:11:02.207Z,100019.28
2023-04-02T08:13:32.330Z,100038.84
2023-04-02T08:16:01.808Z,100040.50
2023-04-02T08:18:31.692Z,100043.84
2023-04-02T08:21:03.229Z,100028.28
2023-04-02T08:23:31.918Z,100037.59
2023-04-02T08:26:04.921Z,100061.22
2023-04-02T08:28:33.905Z,100040.94
2023-04-02T08:31:04.893Z,100060.78
2023-04-02T08:33:33.764Z,100071.81
2023-04-02T08:36:02.999Z,100051.50
2023-04-02T08:38:31.636Z,100074.91
2023-04-02T08:41:04.437Z,100076.38
2023-04-02T08:43:49.067Z,100079.25
2023-04-02T08:46:24.241Z,100076.81
2023-04-02T08:48:57.304Z,100073.59
2023-04-02T08:51:28.045Z,100080.63
2023-04-02T08:54:01.445Z,100063.22
2023-04-02T08:56:38.228Z,100081.88
2023-04-02T08:59:17.110Z,100089.97
2023-04-02T09:01:53.300Z,100087.59
2023-04-02T09:04:24.710Z,100090.66
2023-04-02T09:06:56.994Z,100095.31
2023-04-02T09:09:26.668Z,100081.75
2023-04-02T09:12:01.105Z,100102.28
2023-04-02T09:14:43.261Z,100092.47
2023-04-02T09:17:19.559Z,100101.28
2023-04-02T09:19:56.303Z,100084.34
2023-04-02T09:22:27.063Z,100109.50
2023-04-02T09:24:57.546Z,100105.81
2023-04-02T09:27:29.010Z,100119.91
2023-04-02T09:30:03.950Z,100115.13
2023-04-02T09:32:41.960Z,100126.09
2023-04-02T09:35:25.624Z,100129.28
2023-04-02T09:38:31.833Z,100141.06
2023-04-02T09:41:02.362Z,100142.13
2023-04-02T09:43:33.496Z,100146.75
2023-04-02T09:46:04.449Z,100152.44
2023-04-02T09:48:36.004Z,100145.25
2023-04-02T09:51:16.578Z,100157.91
2023-04-02T09:53:47.531Z,100159.88
2023-04-02T09:56:18.547Z,100165.25
2023-04-02T09:59:04.440Z,100174.56
2023-04-02T10:01:34.955Z,100177.00
2023-04-02T10:04:07.554Z,100187.72
2023-04-02T10:06:36.950Z,100189.88
2023-04-02T10:09:22.820Z,100185.53
2023-04-02T10:11:54.787Z,100191.84
2023-04-02T10:14:29.107Z,100196.88
2023-04-02T10:17:01.249Z,100191.19
2023-04-02T10:19:34.076Z,100205.13
2023-04-02T10:22:07.044Z,100194.47
2023-04-02T10:24:35.599Z,100208.66
2023-04-02T10:27:18.057Z,100203.41
2023-04-02T10:30:02.874Z,100209.38
2023-04-02T10:32:37.591Z,100215.34
2023-04-02T10:35:32.628Z,100216.97
2023-04-02T10:38:17.527Z,100216.25
2023-04-02T10:40:50.118Z,100220.41
2023-04-02T10:43:42.601Z,100219.69
2023-04-02T10:46:20.119Z,100216.41
2023-04-02T10:48:59.430Z,100223.75
2023-04-02T10:51:37.212Z,100225.22
2023-04-02T10:54:19.008Z,100230.25
2023-04-02T10:56:51.319Z,100227.78
2023-04-02T10:59:24.803Z,100233.16
2023-04-02T11:01:59.280Z,100235.66
2023-04-02T11:04:33.025Z,100235.78
2023-04-02T11:07:13.696Z,100257.06
2023-04-02T11:09:45.681Z,100243.03
2023-04-02T11:12:23.032Z,100250.69
2023-04-02T11:14:53.711Z,100256.03
2023-04-02T11:17:28.444Z,100240.41
2023-04-02T11:20:17.041Z,100238.97
2023-04-02T11:22:47.699Z,100272.28
2023-04-02T11:25:24.509Z,100272.63
2023-04-02T11:27:53.569Z,100253.25
2023-04-02T11:30:27.346Z,100269.88
2023-04-02T11:33:39.048Z,100276.31
2023-04-02T11:36:42.206Z,100282.78
2023-04-02T11:39:17.439Z,100286.56
2023-04-02T11:42:06.943Z,100286.19
2023-04-02T11:44:35.763Z,100290.59
2023-04-02T11:47:18.940Z,100292.63
2023-04-02T11:50:05.389Z,100289.56
2023-04-02T11:52:52.829Z,100300.09
2023-04-02T11:55:28.309Z,100304.28
2023-04-02T11:58:44.694Z,100308.25
2023-04-02T12:01:57.709Z,100320.03
2023-04-02T12:04:57.717Z,100317.03
2023-04-02T12:08:05.337Z,100328.38
2023-04-02T12:10:36.023Z,100318.06
2023-04-02T12:13:06.036Z,100319.38
2023-04-02T12:15:42.463Z,100338.13
2023-04-02T12:18:17.625Z,100322.91
2023-04-02T12:20:51.436Z,100331.56
2023-04-02T12:23:29.534Z,100321.59
2023-04-02T12:26:00.779Z,100335.28
2023-04-02T12:28:31.459Z,100336.78
2023-04-02T12:31:18.805Z,100330.53
2023-04-02T12:33:47.759Z,100344.75
2023-04-02T12:36:22.412Z,100347.50
2023-04-02T12:38:54.932Z,100349.41
2023-04-02T12:41:28.049Z,100349.91
2023-04-02T12:44:01.133Z,100358.28
2023-04-02T12:46:31.047Z,100354.31
2023-04-02T12:49:06.500Z,100357.78
2023-04-02T12:51:36.915Z,100367.34
2023-04-02T12:54:07.465Z,100365.31
2023-04-02T12:56:36.867Z,100368.44
2023-04-02T12:59:06.565Z,100371.78
2023-04-02T13:01:35.258Z,100367.28
2023-04-02T13:04:06.998Z,100374.47
2023-04-02T13:06:36.543Z,100377.50
2023-04-02T13:09:09.289Z,100367.00
2023-04-02T13:11:40.658Z,100372.63
2023-04-02T13:14:16.998Z,100372.75
2023-04-02T13:16:45.524Z,100389.97
2023-04-02T13:19:27.616Z,100394.16
2023-04-02T13:21:57.027Z,100387.84
2023-04-02T13:24:28.699Z,100379.47
2023-04-02T13:26:59.238Z,100388.66
2023-04-02T13:29:29.969Z,100389.75
2023-04-02T13:32:01.938Z,100374.81
2023-04-02T13:34:31.351Z,100392.56
2023-04-02T13:37:00.260Z,100392.69
2023-04-02T13:39:31.041Z,100393.50
2023-04-02T13:42:01.519Z,100397.72
2023-04-02T13:44:32.240Z,100399.38
2023-04-02T13:47:02.457Z,100416.81
2023-04-02T13:49:31.581Z,100403.78
2023-04-02T13:52:03.359Z,100400.13
2023-04-02T13:54:38.540Z,100418.72
2023-04-02T13:57:07.661Z,100424.25
2023-04-02T13:59:36.326Z,100422.03
2023-04-02T14:02:07.865Z,100422.84
2023-04-02T14:04:40.903Z,100435.00
2023-04-02T14:07:24.844Z,100424.19
2023-04-02T14:10:04.374Z,100439.47
2023-04-02T14:12:43.823Z,100435.97
2023-04-02T14:15:27.922Z,100440.19
2023-04-02T14:18:16.978Z,100430.28
2023-04-02T14:20:52.652Z,100427.56
2023-04-02T14:23:41.591Z,100438.16
2023-04-02T14:26:23.128Z,100438.56
2023-04-02T14:29:00.154Z,100454.44
2023-04-02T14:31:34.384Z,100448.00
2023-04-02T14:34:10.149Z,100446.53
2023-04-02T14:36:56.729Z,100454.44
2023-04-02T14:39:37.940Z,100465.88
2023-04-02T14:42:15.897Z,100465.16
2023-04-02T14:44:50.440Z,100468.28
2023-04-02T14:47:24.785Z,100467.63
2023-04-02T14:49:57.525Z,100462.75
2023-04-02T14:52:28.280Z,100472.09
2023-04-02T14:55:02.772Z,100470.91
2023-04-02T14:57:38.086Z,100473.78
2023-04-02T15:00:20.737Z,100479.25
2023-04-02T15:02:53.367Z,100478.06
2023-04-02T15:05:28.479Z,100486.59
2023-04-02T15:08:03.002Z,100490.50
2023-04-02T15:10:34.055Z,100473.50
2023-04-02T15:13:09.435Z,100492.63
2023-04-02T15:15:44.685Z,100494.28
2023-04-02T15:18:15.586Z,100489.03
2023-04-02T15:20:52.632Z,100498.81
2023-04-02T15:23:33.986Z,100500.63
2023-04-02T15:26:14.166Z,100497.88
2023-04-02T15:28:48.201Z,100498.81
2023-04-02T15:31:17.040Z,100503.63
2023-04-02T15:33:48.490Z,100505.97
2023-04-02T15:36:41.779Z,100511.56
2023-04-02T15:39:30.963Z,100518.28
2023-04-02T15:42:12.112Z,100526.78
2023-04-02T15:44:48.967Z,100523.41
2023-04-02T15:47:24.190Z,100521.88
2023-04-02T15:50:02.563Z,100523.00
2023-04-02T15:52:37.679Z,100525.31
2023-04-02T15:55:19.799Z,100529.84
2023-04-02T15:58:08.689Z,100533.94
2023-04-02T16:00:43.332Z,100540.03
2023-04-02T16:03:29.119Z,100546.47
2023-04-02T16:06:18.166Z,100539.53
2023-04-02T16:09:00.457Z,100551.59
2023-04-02T16:11:29.211Z,100557.56
2023-04-02T16:14:12.950Z,100555.69
2023-04-02T16:16:46.448Z,100555.06
2023-04-02T16:19:22.906Z,100557.56
2023-04-02T16:22:01.807Z,100562.84
2023-04-02T16:24:30.436Z,100570.19
2023-04-02T16:27:12.303Z,100575.25
2023-04-02T16:29:56.779Z,100571.06
2023-04-02T16:32:49.582Z,100579.19
2023-04-02T16:38:04.422Z,100601.50
2023-04-02T16:40:40.750Z,100600.06
2023-04-02T16:43:22.382Z,100605.84
2023-04-02T16:45:58.908Z,100608.78
2023-04-02T16:48:40.241Z,100611.94
2023-04-02T16:51:16.653Z,100623.16
2023-04-02T16:54:01.409Z,100621.94
2023-04-02T16:56:57.476Z,100624.22
2023-04-02T16:59:35.972Z,100630.63
2023-04-02T17:02:18.863Z,100627.16
2023-04-02T17:05:18.088Z,100634.34
2023-04-02T17:07:53.329Z,100635.28
2023-04-02T17:10:32.788Z,100643.56
2023-04-02T17:13:14.306Z,100649.25
2023-04-02T17:15:48.657Z,100648.50
2023-04-02T17:18:20.721Z,100654.28
2023-04-02T17:20:50.717Z,100656.81
2023-04-02T17:23:21.908Z,100656.28
2023-04-02T17:25:55.588Z,100663.97
2023-04-02T17:28:37.091Z,100655.00
2023-04-02T17:31:12.044Z,100666.59
2023-04-02T17:33:40.700Z,100665.31
2023-04-02T17:36:33.468Z,100669.41
2023-04-02T17:39:12.843Z,100672.44
2023-04-02T17:41:49.012Z,100676.31
2023-04-02T17:44:41.163Z,100677.84
2023-04-02T17:47:16.612Z,100678.56
2023-04-02T17:49:57.074Z,100676.88
2023-04-02T17:52:35.594Z,100685.66
2023-04-02T17:55:14.914Z,100690.97
2023-04-02T17:57:55.684Z,100692.50
2023-04-02T18:00:42.888Z,100696.44
2023-04-02T18:03:38.759Z,100705.44
2023-04-02T18:06:12.723Z,100708.28
2023-04-02T18:08:52.679Z,100717.56
2023-04-02T18:11:31.215Z,100715.84
2023-04-02T18:14:02.027Z,100720.34
2023-04-02T18:16:45.897Z,100730.72
2023-04-02T18:19:19.466Z,100735.97
2023-04-02T18:21:56.579Z,100716.88
2023-04-02T18:24:42.849Z,100744.72
2023-04-02T18:27:28.929Z,100750.50
2023-04-02T18:30:09.594Z,100754.91
2023-04-02T18:33:04.813Z,100762.56
2023-04-02T18:35:35.242Z,100765.94
2023-04-02T18:38:20.693Z,100767.41
2023-04-02T18:41:03.020Z,100753.41
2023-04-02T18:43:44.359Z,100766.66
2023-04-02T18:46:23.746Z,100773.41
2023-04-02T18:48:58.963Z,100778.75
2023-04-02T18:51:30.204Z,100782.44
2023-04-02T18:54:12.612Z,100775.28
2023-04-02T18:56:43.548Z,100786.81
2023-04-02T18:59:27.512Z,100790.31
2023-04-02T19:01:59.550Z,100792.00
2023-04-02T19:04:31.107Z,100780.75
2023-04-02T19:07:06.366Z,100791.47
2023-04-02T19:09:37.909Z,100798.72
2023-04-02T19:12:16.948Z,100790.63
2023-04-02T19:14:45.857Z,100794.00
2023-04-02T19:17:19.357Z,100800.19
2023-04-02T19:19:59.781Z,100802.34
2023-04-02T19:22:35.854Z,100801.75
2023-04-02T19:25:31.580Z,100805.28
2023-04-02T19:28:09.435Z,100815.38
2023-04-02T19:30:51.756Z,100812.47
2023-04-02T19:33:32.809Z,100820.94
2023-04-02T19:36:06.754Z,100818.59
2023-04-02T19:38:49.559Z,100822.78
2023-04-02T19:41:27.818Z,100825.59
2023-04-02T19:43:58.714Z,100823.91
2023-04-02T19:46:28.140Z,100826.00
2023-04-02T19:49:03.759Z,100826.94
2023-04-02T19:51:33.781Z,100825.59
2023-04-02T19:54:02.689Z,100828.31
2023-04-02T19:56:31.366Z,100824.53
2023-04-02T19:59:07.807Z,100834.97
2023-04-02T20:01:46.090Z,100835.16
2023-04-02T20:04:15.133Z,100840.00
2023-04-02T20:06:43.833Z,100836.44
2023-04-02T20:09:12.521Z,100840.63
2023-04-02T20:11:41.328Z,100839.56
2023-04-02T20:14:11.269Z,100843.66
2023-04-02T20:16:40.122Z,100845.88
2023-04-02T20:19:08.780Z,100834.81
2023-04-02T20:21:38.667Z,100852.25
2023-04-02T20:24:10.503Z,100855.72
2023-04-02T20:26:39.298Z,100840.81
2023-04-02T20:29:07.829Z,100856.16
2023-04-02T20:31:38.005Z,100851.38
2023-04-02T20:34:09.800Z,100858.97
2023-04-02T20:36:38.488Z,100873.50
2023-04-02T20:39:08.516Z,100869.94
2023-04-02T20:41:38.565Z,100872.06
2023-04-02T20:44:07.325Z,100873.47
2023-04-02T20:46:36.186Z,100879.47
2023-04-02T20:49:06.440Z,100879.34
2023-04-02T20:51:35.627Z,100878.16
2023-04-02T20:54:04.544Z,100879.84
2023-04-02T20:56:33.362Z,100861.53
2023-04-02T20:59:02.138Z,100882.72
2023-04-02T21:01:32.106Z,100878.25
2023-04-02T21:04:02.362Z,100887.13
2023-04-02T21:06:34.440Z,100886.97
2023-04-02T21:09:04.840Z,100891.75
2023-04-02T21:11:34.796Z,100877.31
2023-04-02T21:14:04.513Z,100899.06
2023-04-02T21:16:33.558Z,100883.81
2023-04-02T21:19:03.856Z,100906.28
2023-04-02T21:21:34.760Z,100894.00
2023-04-02T21:24:05.606Z,100900.19
2023-04-02T21:26:36.355Z,100900.38
2023-04-02T21:29:05.645Z,100900.50
2023-04-02T21:31:38.081Z,100915.28
2023-04-02T21:34:08.995Z,100911.63
2023-04-02T21:36:42.265Z,100916.47
2023-04-02T21:39:12.623Z,100909.34
2023-04-02T21:41:42.878Z,100931.47
2023-04-02T21:44:15.595Z,100904.97
2023-04-02T21:46:45.447Z,100910.50
2023-04-02T21:49:16.046Z,100913.31
2023-04-02T21:51:48.101Z,100921.53
2023-04-02T21:54:16.964Z,100922.78
2023-04-02T21:56:47.562Z,100927.66
2023-04-02T21:59:18.264Z,100929.88
2023-04-02T22:01:48.918Z,100932.50
2023-04-02T22:04:19.874Z,100934.25
2023-04-02T22:06:50.914Z,100939.25
2023-04-02T22:09:21.489Z,100938.00
2023-04-02T22:11:54.600Z,100940.06
2023-04-02T22:14:23.673Z,100943.94
2023-04-02T22:16:53.225Z,100947.56
2023-04-02T22:19:22.876Z,100952.25
2023-04-02T22:21:53.392Z,100953.94
2023-04-02T22:24:22.842Z,100949.41
2023-04-02T22:26:51.437Z,100956.16
2023-04-02T22:29:20.390Z,100950.13
2023-04-02T22:31:49.387Z,100937.25
2023-04-02T22:34:17.901Z,100954.13
2023-04-02T22:36:46.474Z,100955.56
2023-04-02T22:39:17.303Z,100963.19
2023-04-02T22:41:46.032Z,100955.75
2023-04-02T22:44:16.007Z,100964.13
2023-04-02T22:46:44.747Z,100958.88
2023-04-02T22:49:19.677Z,100954.94
2023-04-02T22:51:48.531Z,100963.84
2023-04-02T22:54:18.482Z,100958.44
2023-04-02T22:56:47.061Z,100967.38
2023-04-02T22:59:15.792Z,100970.69
2023-04-02T23:01:44.357Z,100974.22
2023-04-02T23:04:13.108Z,100968.91
2023-04-02T23:06:41.598Z,100975.53
2023-04-02T23:09:11.317Z,100977.56
2023-04-02T23:11:41.635Z,100975.75
2023-04-02T23:14:10.643Z,100974.84
2023-04-02T23:16:39.228Z,100983.88
2023-04-02T23:19:07.757Z,100979.75
2023-04-02T23:21:36.454Z,100990.34
2023-04-02T23:24:05.244Z,100975.09
2023-04-02T23:26:33.887Z,100986.06
2023-04-02T23:29:04.125Z,100993.13
2023-04-02T23:31:32.676Z,100992.25
2023-04-02T23:34:01.302Z,100988.94
2023-04-02T23:36:31.868Z,100988.59
2023-04-02T23:39:02.054Z,100996.72
2023-04-02T23:41:32.083Z,100999.41
2023-04-02T23:44:00.693Z,100993.00
2023-04-02T23:46:31.757Z,101005.09
2023-04-02T23:49:01.772Z,101005.59
2023-04-02T23:51:31.470Z,101005.00
2023-04-02T23:53:59.977Z,100999.91
2023-04-02T23:56:28.928Z,101006.13
2023-04-02T23:58:59.569Z,100995.88
